sensor_id;sensor_type;location;lat;lon;timestamp;pressure;altitude;pressure_sealevel;temperature
68446;BMP280;35789;48.414;12.768;2024-03-08T00:00:00;97050.0;;;
68446;BMP280;35789;48.414;12.768;2024-03-08T00:05:00;97050.0;;;
68446;BMP280;35789;48.414;12.768;2024-03-08T00:10:00;97050.0;;;
68446;BMP280;35789;48.414;12.768;2024-03-08T00:15:00;97050.0;;;
68446;BMP280;35789;48.414;12.768;2024-03-08T00:20:00;97040.0;;;
68446;BMP280;35789;48.414;12.768;2024-03-08T00:25:00;97040.0;;;
68446;BMP280;35789;48.414;12.768;2024-03-08T00:30:02;97040.0;;;
68446;BMP280;35789;48.414;12.768;2024-03-08T00:35:00;97030.0;;;
68446;BMP280;35789;48.414;12.768;2024-03-08T00:40:00;97030.0;;;
68446;BMP280;35789;48.414;12.768;2024-03-08T00:45:00;97020.0;;;
68446;BMP280;35789;48.414;12.768;2024-03-08T00:50:00;97020.0;;;
68446;BMP280;35789;48.414;12.768;2024-03-08T00:55:00;97010.0;;;
68446;BMP280;35789;48.414;12.768;2024-03-08T01:00:03;97010.0;;;
68446;BMP280;35789;48.414;12.768;2024-03-08T01:05:00;97000.0;;;
68446;BMP280;35789;48.414;12.768;2024-03-08T01:10:00;97000.0;;;
68446;BMP280;35789;48.414;12.768;2024-03-08T01:15:00;97000.0;;;
68446;BMP280;35789;48.414;12.768;2024-03-08T01:20:00;96990.0;;;
68446;BMP280;35789;48.414;12.768;2024-03-08T01:25:00;96990.0;;;
68446;BMP280;35789;48.414;12.768;2024-03-08T01:30:00;96980.0;;;
68446;BMP280;35789;48.414;12.768;2024-03-08T01:35:00;96970.0;;;
68446;BMP280;35789;48.414;12.768;2024-03-08T01:40:00;96970.0;;;
68446;BMP280;35789;48.414;12.768;2024-03-08T01:45:00;96970.0;;;
68446;BMP280;35789;48.414;12.768;2024-03-08T01:50:02;96970.0;;;
68446;BMP280;35789;48.414;12.768;2024-03-08T01:55:02;96960.0;;;
68446;BMP280;35789;48.414;12.768;2024-03-08T02:00:01;96960.0;;;
68446;BMP280;35789;48.414;12.768;2024-03-08T02:05:00;96950.0;;;
68446;BMP280;35789;48.414;12.768;2024-03-08T02:10:00;96940.0;;;
68446;BMP280;35789;48.414;12.768;2024-03-08T02:15:00;96930.0;;;
68446;BMP280;35789;48.414;12.768;2024-03-08T02:20:00;96940.0;;;
68446;BMP280;35789;48.414;12.768;2024-03-08T02:25:01;96930.0;;;
68446;BMP280;35789;48.414;12.768;2024-03-08T02:30:00;96920.0;;;
68446;BMP280;35789;48.414;12.768;2024-03-08T02:35:00;96920.0;;;
68446;BMP280;35789;48.414;12.768;2024-03-08T02:40:00;96920.0;;;
68446;BMP280;35789;48.414;12.768;2024-03-08T02:45:00;96920.0;;;
68446;BMP280;35789;48.414;12.768;2024-03-08T02:50:00;96920.0;;;
68446;BMP280;35789;48.414;12.768;2024-03-08T02:55:00;96920.0;;;
68446;BMP280;35789;48.414;12.768;2024-03-08T03:00:00;96910.0;;;
68446;BMP280;35789;48.414;12.768;2024-03-08T03:05:00;96900.0;;;
68446;BMP280;35789;48.414;12.768;2024-03-08T03:10:01;96900.0;;;
68446;BMP280;35789;48.414;12.768;2024-03-08T03:15:00;96900.0;;;
68446;BMP280;35789;48.414;12.768;2024-03-08T03:20:00;96890.0;;;
68446;BMP280;35789;48.414;12.768;2024-03-08T03:25:00;96890.0;;;
68446;BMP280;35789;48.414;12.768;2024-03-08T03:30:00;96890.0;;;
68446;BMP280;35789;48.414;12.768;2024-03-08T03:35:00;96890.0;;;
68446;BMP280;35789;48.414;12.768;2024-03-08T03:40:00;96890.0;;;
68446;BMP280;35789;48.414;12.768;2024-03-08T03:45:00;96880.0;;;
68446;BMP280;35789;48.414;12.768;2024-03-08T03:50:00;96880.0;;;
68446;BMP280;35789;48.414;12.768;2024-03-08T03:55:00;96880.0;;;
68446;BMP280;35789;48.414;12.768;2024-03-08T04:00:00;96860.0;;;
68446;BMP280;35789;48.414;12.768;2024-03-08T04:05:00;96880.0;;;
68446;BMP280;35789;48.414;12.768;2024-03-08T04:10:00;96880.0;;;
68446;BMP280;35789;48.414;12.768;2024-03-08T04:15:01;96880.0;;;
68446;BMP280;35789;48.414;12.768;2024-03-08T04:20:00;96880.0;;;
68446;BMP280;35789;48.414;12.768;2024-03-08T04:25:00;96870.0;;;
68446;BMP280;35789;48.414;12.768;2024-03-08T04:30:00;96850.0;;;
68446;BMP280;35789;48.414;12.768;2024-03-08T04:35:00;96860.0;;;
68446;BMP280;35789;48.414;12.768;2024-03-08T04:40:00;96860.0;;;
68446;BMP280;35789;48.414;12.768;2024-03-08T04:45:00;96860.0;;;
68446;BMP280;35789;48.414;12.768;2024-03-08T04:50:00;96850.0;;;
68446;BMP280;35789;48.414;12.768;2024-03-08T04:55:00;96840.0;;;
68446;BMP280;35789;48.414;12.768;2024-03-08T05:00:00;96840.0;;;
68446;BMP280;35789;48.414;12.768;2024-03-08T05:05:00;96840.0;;;
68446;BMP280;35789;48.414;12.768;2024-03-08T05:10:01;96840.0;;;
68446;BMP280;35789;48.414;12.768;2024-03-08T05:15:00;96840.0;;;
68446;BMP280;35789;48.414;12.768;2024-03-08T05:20:00;96840.0;;;
68446;BMP280;35789;48.414;12.768;2024-03-08T05:25:00;96830.0;;;
68446;BMP280;35789;48.414;12.768;2024-03-08T05:30:00;96830.0;;;
68446;BMP280;35789;48.414;12.768;2024-03-08T05:35:00;96830.0;;;
68446;BMP280;35789;48.414;12.768;2024-03-08T05:40:00;96830.0;;;
68446;BMP280;35789;48.414;12.768;2024-03-08T05:45:00;96820.0;;;
68446;BMP280;35789;48.414;12.768;2024-03-08T05:50:00;96830.0;;;
68446;BMP280;35789;48.414;12.768;2024-03-08T05:55:00;96820.0;;;
68446;BMP280;35789;48.414;12.768;2024-03-08T06:00:00;96820.0;;;
68446;BMP280;35789;48.414;12.768;2024-03-08T06:05:00;96820.0;;;
68446;BMP280;35789;48.414;12.768;2024-03-08T06:10:00;96810.0;;;
68446;BMP280;35789;48.414;12.768;2024-03-08T06:15:00;96810.0;;;
68446;BMP280;35789;48.414;12.768;2024-03-08T06:20:00;96810.0;;;
68446;BMP280;35789;48.414;12.768;2024-03-08T06:25:00;96810.0;;;
68446;BMP280;35789;48.414;12.768;2024-03-08T06:30:00;96810.0;;;
68446;BMP280;35789;48.414;12.768;2024-03-08T06:35:00;96820.0;;;
68446;BMP280;35789;48.414;12.768;2024-03-08T06:40:01;96820.0;;;
68446;BMP280;35789;48.414;12.768;2024-03-08T06:45:00;96810.0;;;
68446;BMP280;35789;48.414;12.768;2024-03-08T06:50:00;96810.0;;;
68446;BMP280;35789;48.414;12.768;2024-03-08T06:55:00;96810.0;;;
68446;BMP280;35789;48.414;12.768;2024-03-08T07:00:00;96810.0;;;
68446;BMP280;35789;48.414;12.768;2024-03-08T07:05:00;96810.0;;;
68446;BMP280;35789;48.414;12.768;2024-03-08T07:10:00;96810.0;;;
68446;BMP280;35789;48.414;12.768;2024-03-08T07:15:00;96800.0;;;
68446;BMP280;35789;48.414;12.768;2024-03-08T07:20:01;96800.0;;;
68446;BMP280;35789;48.414;12.768;2024-03-08T07:25:00;96800.0;;;
68446;BMP280;35789;48.414;12.768;2024-03-08T07:30:00;96800.0;;;
68446;BMP280;35789;48.414;12.768;2024-03-08T07:35:00;96810.0;;;
68446;BMP280;35789;48.414;12.768;2024-03-08T07:40:00;96790.0;;;
68446;BMP280;35789;48.414;12.768;2024-03-08T07:45:00;96790.0;;;
68446;BMP280;35789;48.414;12.768;2024-03-08T07:50:00;96800.0;;;
68446;BMP280;35789;48.414;12.768;2024-03-08T07:55:00;96790.0;;;
68446;BMP280;35789;48.414;12.768;2024-03-08T08:00:00;96790.0;;;
68446;BMP280;35789;48.414;12.768;2024-03-08T08:05:00;96770.0;;;
68446;BMP280;35789;48.414;12.768;2024-03-08T08:10:00;96780.0;;;
68446;BMP280;35789;48.414;12.768;2024-03-08T08:15:00;96780.0;;;
68446;BMP280;35789;48.414;12.768;2024-03-08T08:20:00;96780.0;;;
68446;BMP280;35789;48.414;12.768;2024-03-08T08:25:00;96770.0;;;
68446;BMP280;35789;48.414;12.768;2024-03-08T08:30:00;96760.0;;;
68446;BMP280;35789;48.414;12.768;2024-03-08T08:35:00;96760.0;;;
68446;BMP280;35789;48.414;12.768;2024-03-08T08:40:00;96750.0;;;
68446;BMP280;35789;48.414;12.768;2024-03-08T08:45:00;96750.0;;;
68446;BMP280;35789;48.414;12.768;2024-03-08T08:50:00;96750.0;;;
68446;BMP280;35789;48.414;12.768;2024-03-08T08:55:00;96740.0;;;
68446;BMP280;35789;48.414;12.768;2024-03-08T09:00:00;96730.0;;;
68446;BMP280;35789;48.414;12.768;2024-03-08T09:05:00;96730.0;;;
68446;BMP280;35789;48.414;12.768;2024-03-08T09:10:00;96720.0;;;
68446;BMP280;35789;48.414;12.768;2024-03-08T09:15:00;96710.0;;;
68446;BMP280;35789;48.414;12.768;2024-03-08T09:20:00;96700.0;;;
68446;BMP280;35789;48.414;12.768;2024-03-08T09:25:00;96690.0;;;
68446;BMP280;35789;48.414;12.768;2024-03-08T09:30:00;96680.0;;;
68446;BMP280;35789;48.414;12.768;2024-03-08T09:35:01;96680.0;;;
68446;BMP280;35789;48.414;12.768;2024-03-08T09:40:00;96680.0;;;
68446;BMP280;35789;48.414;12.768;2024-03-08T09:45:00;96670.0;;;
68446;BMP280;35789;48.414;12.768;2024-03-08T09:50:00;96670.0;;;
68446;BMP280;35789;48.414;12.768;2024-03-08T09:55:00;96670.0;;;
68446;BMP280;35789;48.414;12.768;2024-03-08T10:00:00;96670.0;;;
68446;BMP280;35789;48.414;12.768;2024-03-08T10:05:01;96660.0;;;
68446;BMP280;35789;48.414;12.768;2024-03-08T10:10:00;96660.0;;;
68446;BMP280;35789;48.414;12.768;2024-03-08T10:15:00;96660.0;;;
68446;BMP280;35789;48.414;12.768;2024-03-08T10:20:00;96670.0;;;
68446;BMP280;35789;48.414;12.768;2024-03-08T10:25:00;96650.0;;;
68446;BMP280;35789;48.414;12.768;2024-03-08T10:30:00;96640.0;;;
68446;BMP280;35789;48.414;12.768;2024-03-08T10:35:00;96640.0;;;
68446;BMP280;35789;48.414;12.768;2024-03-08T10:40:04;96630.0;;;
68446;BMP280;35789;48.414;12.768;2024-03-08T10:45:12;96630.0;;;
68446;BMP280;35789;48.414;12.768;2024-03-08T10:50:11;96620.0;;;
68446;BMP280;35789;48.414;12.768;2024-03-08T10:55:01;96620.0;;;
68446;BMP280;35789;48.414;12.768;2024-03-08T11:00:02;96610.0;;;
68446;BMP280;35789;48.414;12.768;2024-03-08T11:05:02;96600.0;;;
68446;BMP280;35789;48.414;12.768;2024-03-08T11:10:03;96600.0;;;
68446;BMP280;35789;48.414;12.768;2024-03-08T11:15:02;96580.0;;;
68446;BMP280;35789;48.414;12.768;2024-03-08T11:20:00;96580.0;;;
68446;BMP280;35789;48.414;12.768;2024-03-08T11:25:02;96570.0;;;
68446;BMP280;35789;48.414;12.768;2024-03-08T11:30:02;96570.0;;;
68446;BMP280;35789;48.414;12.768;2024-03-08T11:35:00;96570.0;;;
68446;BMP280;35789;48.414;12.768;2024-03-08T11:40:00;96540.0;;;
68446;BMP280;35789;48.414;12.768;2024-03-08T11:45:00;96560.0;;;
68446;BMP280;35789;48.414;12.768;2024-03-08T11:50:00;96540.0;;;
68446;BMP280;35789;48.414;12.768;2024-03-08T11:55:00;96530.0;;;
68446;BMP280;35789;48.414;12.768;2024-03-08T12:00:01;96530.0;;;
68446;BMP280;35789;48.414;12.768;2024-03-08T12:05:01;96530.0;;;
68446;BMP280;35789;48.414;12.768;2024-03-08T12:15:00;96500.0;;;
68446;BMP280;35789;48.414;12.768;2024-03-08T12:25:05;96490.0;;;
68446;BMP280;35789;48.414;12.768;2024-03-08T12:35:00;96480.0;;;
68446;BMP280;35789;48.414;12.768;2024-03-08T12:40:00;96460.0;;;
68446;BMP280;35789;48.414;12.768;2024-03-08T12:45:00;96460.0;;;
68446;BMP280;35789;48.414;12.768;2024-03-08T12:50:00;96460.0;;;
68446;BMP280;35789;48.414;12.768;2024-03-08T12:55:00;96460.0;;;
68446;BMP280;35789;48.414;12.768;2024-03-08T13:00:01;96450.0;;;
68446;BMP280;35789;48.414;12.768;2024-03-08T13:05:00;96430.0;;;
68446;BMP280;35789;48.414;12.768;2024-03-08T13:10:00;96430.0;;;
68446;BMP280;35789;48.414;12.768;2024-03-08T13:15:00;96430.0;;;
68446;BMP280;35789;48.414;12.768;2024-03-08T13:20:00;96420.0;;;
68446;BMP280;35789;48.414;12.768;2024-03-08T13:25:00;96420.0;;;
68446;BMP280;35789;48.414;12.768;2024-03-08T13:30:00;96400.0;;;
68446;BMP280;35789;48.414;12.768;2024-03-08T13:35:00;96390.0;;;
68446;BMP280;35789;48.414;12.768;2024-03-08T13:40:00;96390.0;;;
68446;BMP280;35789;48.414;12.768;2024-03-08T13:45:00;96390.0;;;
68446;BMP280;35789;48.414;12.768;2024-03-08T13:50:00;96380.0;;;
68446;BMP280;35789;48.414;12.768;2024-03-08T13:55:00;96370.0;;;
68446;BMP280;35789;48.414;12.768;2024-03-08T14:00:00;96360.0;;;
68446;BMP280;35789;48.414;12.768;2024-03-08T14:05:00;96350.0;;;
68446;BMP280;35789;48.414;12.768;2024-03-08T14:10:00;96340.0;;;
68446;BMP280;35789;48.414;12.768;2024-03-08T14:15:00;96340.0;;;
68446;BMP280;35789;48.414;12.768;2024-03-08T14:20:00;96330.0;;;
68446;BMP280;35789;48.414;12.768;2024-03-08T14:25:00;96320.0;;;
68446;BMP280;35789;48.414;12.768;2024-03-08T14:30:00;96310.0;;;
68446;BMP280;35789;48.414;12.768;2024-03-08T14:35:00;96310.0;;;
68446;BMP280;35789;48.414;12.768;2024-03-08T14:40:00;96320.0;;;
68446;BMP280;35789;48.414;12.768;2024-03-08T14:50:00;96300.0;;;
68446;BMP280;35789;48.414;12.768;2024-03-08T14:55:00;96300.0;;;
68446;BMP280;35789;48.414;12.768;2024-03-08T15:00:00;96300.0;;;
68446;BMP280;35789;48.414;12.768;2024-03-08T15:05:00;96290.0;;;
68446;BMP280;35789;48.414;12.768;2024-03-08T15:10:00;96290.0;;;
68446;BMP280;35789;48.414;12.768;2024-03-08T15:15:01;96290.0;;;
68446;BMP280;35789;48.414;12.768;2024-03-08T15:20:00;96270.0;;;
68446;BMP280;35789;48.414;12.768;2024-03-08T15:25:00;96280.0;;;
68446;BMP280;35789;48.414;12.768;2024-03-08T15:30:00;96280.0;;;
68446;BMP280;35789;48.414;12.768;2024-03-08T15:35:00;96270.0;;;
68446;BMP280;35789;48.414;12.768;2024-03-08T15:40:00;96270.0;;;
68446;BMP280;35789;48.414;12.768;2024-03-08T15:45:00;96270.0;;;
68446;BMP280;35789;48.414;12.768;2024-03-08T15:50:00;96260.0;;;
68446;BMP280;35789;48.414;12.768;2024-03-08T15:55:00;96260.0;;;
68446;BMP280;35789;48.414;12.768;2024-03-08T16:00:00;96270.0;;;
68446;BMP280;35789;48.414;12.768;2024-03-08T16:05:00;96260.0;;;
68446;BMP280;35789;48.414;12.768;2024-03-08T16:10:00;96260.0;;;
68446;BMP280;35789;48.414;12.768;2024-03-08T16:15:00;96250.0;;;
68446;BMP280;35789;48.414;12.768;2024-03-08T16:20:00;96250.0;;;
68446;BMP280;35789;48.414;12.768;2024-03-08T16:25:00;96250.0;;;
68446;BMP280;35789;48.414;12.768;2024-03-08T16:30:00;96250.0;;;
68446;BMP280;35789;48.414;12.768;2024-03-08T16:35:00;96250.0;;;
68446;BMP280;35789;48.414;12.768;2024-03-08T16:40:00;96260.0;;;
68446;BMP280;35789;48.414;12.768;2024-03-08T16:45:00;96250.0;;;
68446;BMP280;35789;48.414;12.768;2024-03-08T16:50:00;96250.0;;;
68446;BMP280;35789;48.414;12.768;2024-03-08T16:55:00;96240.0;;;
68446;BMP280;35789;48.414;12.768;2024-03-08T17:00:00;96240.0;;;
68446;BMP280;35789;48.414;12.768;2024-03-08T17:05:00;96230.0;;;
68446;BMP280;35789;48.414;12.768;2024-03-08T17:10:01;96240.0;;;
68446;BMP280;35789;48.414;12.768;2024-03-08T17:15:00;96240.0;;;
68446;BMP280;35789;48.414;12.768;2024-03-08T17:20:00;96230.0;;;
68446;BMP280;35789;48.414;12.768;2024-03-08T17:25:00;96230.0;;;
68446;BMP280;35789;48.414;12.768;2024-03-08T17:30:00;96230.0;;;
68446;BMP280;35789;48.414;12.768;2024-03-08T17:35:00;96230.0;;;
68446;BMP280;35789;48.414;12.768;2024-03-08T17:40:00;96220.0;;;
68446;BMP280;35789;48.414;12.768;2024-03-08T17:45:00;96220.0;;;
68446;BMP280;35789;48.414;12.768;2024-03-08T17:50:00;96220.0;;;
68446;BMP280;35789;48.414;12.768;2024-03-08T17:55:00;96220.0;;;
68446;BMP280;35789;48.414;12.768;2024-03-08T18:00:00;96220.0;;;
68446;BMP280;35789;48.414;12.768;2024-03-08T18:05:00;96220.0;;;
68446;BMP280;35789;48.414;12.768;2024-03-08T18:10:00;96210.0;;;
68446;BMP280;35789;48.414;12.768;2024-03-08T18:15:00;96210.0;;;
68446;BMP280;35789;48.414;12.768;2024-03-08T18:20:00;96210.0;;;
68446;BMP280;35789;48.414;12.768;2024-03-08T18:25:00;96210.0;;;
68446;BMP280;35789;48.414;12.768;2024-03-08T18:30:00;96200.0;;;
68446;BMP280;35789;48.414;12.768;2024-03-08T18:35:00;96200.0;;;
68446;BMP280;35789;48.414;12.768;2024-03-08T18:40:00;96190.0;;;
68446;BMP280;35789;48.414;12.768;2024-03-08T18:45:00;96180.0;;;
68446;BMP280;35789;48.414;12.768;2024-03-08T18:50:01;96180.0;;;
68446;BMP280;35789;48.414;12.768;2024-03-08T18:55:01;96170.0;;;
68446;BMP280;35789;48.414;12.768;2024-03-08T19:00:00;96170.0;;;
68446;BMP280;35789;48.414;12.768;2024-03-08T19:05:00;96160.0;;;
68446;BMP280;35789;48.414;12.768;2024-03-08T19:10:00;96160.0;;;
68446;BMP280;35789;48.414;12.768;2024-03-08T19:15:00;96160.0;;;
68446;BMP280;35789;48.414;12.768;2024-03-08T19:20:00;96160.0;;;
68446;BMP280;35789;48.414;12.768;2024-03-08T19:25:00;96160.0;;;
68446;BMP280;35789;48.414;12.768;2024-03-08T19:30:00;96150.0;;;
68446;BMP280;35789;48.414;12.768;2024-03-08T19:35:00;96150.0;;;
68446;BMP280;35789;48.414;12.768;2024-03-08T19:40:00;96150.0;;;
68446;BMP280;35789;48.414;12.768;2024-03-08T19:45:00;96150.0;;;
68446;BMP280;35789;48.414;12.768;2024-03-08T19:50:00;96140.0;;;
68446;BMP280;35789;48.414;12.768;2024-03-08T19:55:00;96140.0;;;
68446;BMP280;35789;48.414;12.768;2024-03-08T20:00:00;96130.0;;;
68446;BMP280;35789;48.414;12.768;2024-03-08T20:05:00;96130.0;;;
68446;BMP280;35789;48.414;12.768;2024-03-08T20:10:00;96140.0;;;
68446;BMP280;35789;48.414;12.768;2024-03-08T20:15:00;96130.0;;;
68446;BMP280;35789;48.414;12.768;2024-03-08T20:20:00;96130.0;;;
68446;BMP280;35789;48.414;12.768;2024-03-08T20:25:00;96130.0;;;
68446;BMP280;35789;48.414;12.768;2024-03-08T20:30:00;96130.0;;;
68446;BMP280;35789;48.414;12.768;2024-03-08T20:35:00;96130.0;;;
68446;BMP280;35789;48.414;12.768;2024-03-08T20:40:00;96120.0;;;
68446;BMP280;35789;48.414;12.768;2024-03-08T20:45:00;96120.0;;;
68446;BMP280;35789;48.414;12.768;2024-03-08T20:50:00;96120.0;;;
68446;BMP280;35789;48.414;12.768;2024-03-08T20:55:00;96130.0;;;
68446;BMP280;35789;48.414;12.768;2024-03-08T21:00:00;96120.0;;;
68446;BMP280;35789;48.414;12.768;2024-03-08T21:05:00;96120.0;;;
68446;BMP280;35789;48.414;12.768;2024-03-08T21:10:00;96120.0;;;
68446;BMP280;35789;48.414;12.768;2024-03-08T21:15:00;96110.0;;;
68446;BMP280;35789;48.414;12.768;2024-03-08T21:20:00;96110.0;;;
68446;BMP280;35789;48.414;12.768;2024-03-08T21:25:00;96110.0;;;
68446;BMP280;35789;48.414;12.768;2024-03-08T21:30:00;96110.0;;;
68446;BMP280;35789;48.414;12.768;2024-03-08T21:35:00;96100.0;;;
68446;BMP280;35789;48.414;12.768;2024-03-08T21:40:00;96090.0;;;
68446;BMP280;35789;48.414;12.768;2024-03-08T21:45:02;96090.0;;;
68446;BMP280;35789;48.414;12.768;2024-03-08T21:50:00;96080.0;;;
68446;BMP280;35789;48.414;12.768;2024-03-08T21:55:00;96080.0;;;
68446;BMP280;35789;48.414;12.768;2024-03-08T22:00:00;96080.0;;;
68446;BMP280;35789;48.414;12.768;2024-03-08T22:05:00;96070.0;;;
68446;BMP280;35789;48.414;12.768;2024-03-08T22:10:00;96060.0;;;
68446;BMP280;35789;48.414;12.768;2024-03-08T22:15:00;96060.0;;;
68446;BMP280;35789;48.414;12.768;2024-03-08T22:20:00;96040.0;;;
68446;BMP280;35789;48.414;12.768;2024-03-08T22:25:00;96040.0;;;
68446;BMP280;35789;48.414;12.768;2024-03-08T22:30:00;96040.0;;;
68446;BMP280;35789;48.414;12.768;2024-03-08T22:35:00;96030.0;;;
68446;BMP280;35789;48.414;12.768;2024-03-08T22:40:00;96030.0;;;
68446;BMP280;35789;48.414;12.768;2024-03-08T22:45:00;96030.0;;;
68446;BMP280;35789;48.414;12.768;2024-03-08T22:50:00;96030.0;;;
68446;BMP280;35789;48.414;12.768;2024-03-08T22:55:00;96030.0;;;
68446;BMP280;35789;48.414;12.768;2024-03-08T23:00:00;96020.0;;;
68446;BMP280;35789;48.414;12.768;2024-03-08T23:05:00;96020.0;;;
68446;BMP280;35789;48.414;12.768;2024-03-08T23:10:00;96020.0;;;
68446;BMP280;35789;48.414;12.768;2024-03-08T23:15:00;96020.0;;;
68446;BMP280;35789;48.414;12.768;2024-03-08T23:20:00;96020.0;;;
68446;BMP280;35789;48.414;12.768;2024-03-08T23:25:00;96020.0;;;
68446;BMP280;35789;48.414;12.768;2024-03-08T23:30:00;96030.0;;;
68446;BMP280;35789;48.414;12.768;2024-03-08T23:35:00;96030.0;;;
68446;BMP280;35789;48.414;12.768;2024-03-08T23:40:00;96020.0;;;
68446;BMP280;35789;48.414;12.768;2024-03-08T23:45:00;96020.0;;;
68446;BMP280;35789;48.414;12.768;2024-03-08T23:50:00;96010.0;;;
68446;BMP280;35789;48.414;12.768;2024-03-08T23:55:00;96010.0;;;
